Time;durP1;ratioP1;P1;durP2;ratioP2;P2;SDS_P1;SDS_P2;PMS_P1;PMS_P2;Temp;Humidity;BMP_temperature;BMP_pressure;BME280_temperature;BME280_humidity;BME280_pressure;Samples;Min_cycle;Max_cycle;Signal;HPM_P1;HPM_P2
2022/05/28 00:00:29;;;;;;;5.28;1.60;;;;;;;9.50;64.34;100667.66;10416376;28;20406;-79
2022/05/28 00:05:33;;;;;;;12.63;1.98;;;;;;;9.22;65.14;100663.44;10431482;28;20058;-79
2022/05/28 00:10:36;;;;;;;11.40;2.35;;;;;;;9.64;64.00;100664.00;10404851;28;20056;-79
2022/05/28 00:15:41;;;;;;;10.90;2.50;;;;;;;9.68;64.13;100650.25;10406404;28;20466;-80
2022/05/28 00:20:46;;;;;;;9.65;2.08;;;;;;;9.47;64.43;100646.44;10401547;28;20049;-80
2022/05/28 00:25:48;;;;;;;8.07;2.15;;;;;;;9.55;65.04;100645.88;10411231;28;20045;-80
2022/05/28 00:30:51;;;;;;;10.43;1.90;;;;;;;9.62;64.55;100644.47;10414382;28;20077;-80
2022/05/28 00:35:56;;;;;;;8.52;2.00;;;;;;;9.32;65.06;100650.22;10416193;28;20045;-80
2022/05/28 00:41:00;;;;;;;8.48;1.80;;;;;;;9.00;66.02;100642.66;10405556;28;20045;-80
2022/05/28 00:46:09;;;;;;;9.10;2.28;;;;;;;9.04;66.98;100628.91;10405631;28;20502;-79
2022/05/28 00:51:17;;;;;;;11.40;2.22;;;;;;;9.02;66.66;100621.94;10402892;28;20062;-80
2022/05/28 00:56:22;;;;;;;9.60;2.45;;;;;;;8.86;67.14;100629.34;10407302;28;20057;-78
2022/05/28 01:01:29;;;;;;;11.68;2.70;;;;;;;8.99;67.29;100624.84;10431671;28;20041;-80
2022/05/28 01:06:42;;;;;;;7.75;1.35;;;;;;;8.64;68.09;100625.50;10389843;28;20125;-80
2022/05/28 01:11:50;;;;;;;12.82;2.70;;;;;;;8.82;67.79;100608.13;10411616;28;20041;-80
2022/05/28 01:16:59;;;;;;;14.93;2.00;;;;;;;8.40;68.45;100628.00;10410178;28;20133;-79
2022/05/28 01:22:10;;;;;;;13.70;3.10;;;;;;;8.66;68.66;100617.34;10391849;28;20053;-80
2022/05/28 01:27:18;;;;;;;12.68;2.42;;;;;;;8.42;69.36;100623.41;10409246;28;20046;-80
2022/05/28 01:32:24;;;;;;;12.93;3.45;;;;;;;8.76;68.56;100619.28;10391954;28;20041;-80
2022/05/28 01:37:28;;;;;;;8.13;1.73;;;;;;;8.31;69.65;100632.16;10388111;28;20450;-80
2022/05/28 01:42:34;;;;;;;8.95;1.52;;;;;;;8.40;70.17;100615.47;10412117;28;20122;-77
2022/05/28 01:47:38;;;;;;;10.25;2.17;;;;;;;8.66;69.02;100612.84;10398235;28;20056;-79
2022/05/28 01:52:43;;;;;;;11.73;2.90;;;;;;;8.80;69.16;100614.56;10402548;28;20052;-80
2022/05/28 01:57:47;;;;;;;12.25;3.38;;;;;;;8.52;70.05;100612.94;10394711;28;20510;-80
2022/05/28 02:02:51;;;;;;;14.60;3.20;;;;;;;8.38;70.84;100605.81;10409781;28;20049;-79
2022/05/28 02:07:54;;;;;;;11.48;2.70;;;;;;;8.57;70.38;100600.94;10415875;28;20046;-80
2022/05/28 02:13:07;;;;;;;16.35;3.70;;;;;;;8.62;70.17;100589.94;10401737;28;20045;-80
2022/05/28 02:18:24;;;;;;;7.30;2.53;;;;;;;8.47;70.46;100599.00;10400834;28;20037;-80
2022/05/28 02:23:32;;;;;;;11.55;3.10;;;;;;;8.64;70.45;100600.53;10421378;28;20083;-80
2022/05/28 02:28:37;;;;;;;15.18;3.67;;;;;;;8.37;71.15;100618.34;10411267;28;20395;-80
2022/05/28 02:33:41;;;;;;;16.27;2.95;;;;;;;8.63;70.89;100606.84;10419774;28;20072;-79
2022/05/28 02:38:44;;;;;;;6.07;2.72;;;;;;;8.26;71.42;100610.22;10399849;28;20046;-80
2022/05/28 02:43:49;;;;;;;12.50;3.13;;;;;;;8.78;69.96;100600.44;10404082;28;20072;-80
2022/05/28 02:48:52;;;;;;;8.70;2.40;;;;;;;8.96;69.41;100603.63;10411787;28;20117;-80
2022/05/28 02:53:55;;;;;;;5.78;1.65;;;;;;;8.44;70.69;100613.44;10397962;28;20479;-79
2022/05/28 02:58:59;;;;;;;9.70;2.35;;;;;;;8.69;70.12;100609.09;10422484;28;20038;-79
2022/05/28 03:04:04;;;;;;;4.30;1.92;;;;;;;8.58;70.03;100617.88;10403396;28;20375;-80
2022/05/28 03:09:09;;;;;;;9.10;1.55;;;;;;;8.73;69.44;100616.81;10423750;28;20057;-79
2022/05/28 03:14:13;;;;;;;7.50;1.30;;;;;;;8.70;70.31;100605.47;10411728;28;20042;-80
2022/05/28 03:19:16;;;;;;;8.18;1.77;;;;;;;9.01;69.58;100613.06;10398620;28;20045;-80
2022/05/28 03:24:19;;;;;;;7.55;1.65;;;;;;;8.94;70.11;100629.66;10401626;28;20049;-80
2022/05/28 03:29:23;;;;;;;;;;;;;;;9.06;70.11;100621.63;10394598;28;20095;-80
2022/05/28 03:34:26;;;;;;;11.82;3.17;;;;;;;8.77;71.04;100644.25;10411306;28;19925;-80
2022/05/28 03:39:29;;;;;;;;;;;;;;;8.52;72.53;100640.56;10399985;28;20098;-80
2022/05/28 03:44:33;;;;;;;9.35;2.33;;;;;;;8.75;71.85;100636.31;10402134;28;20349;-80
2022/05/28 03:49:39;;;;;;;11.35;2.45;;;;;;;8.59;71.78;100641.03;10434709;28;20065;-80
2022/05/28 03:54:44;;;;;;;5.55;1.75;;;;;;;8.75;71.59;100636.31;10422773;28;20450;-79
2022/05/28 03:59:48;;;;;;;10.30;1.85;;;;;;;8.18;73.49;100640.16;10400935;28;20057;-80
2022/05/28 04:04:51;;;;;;;13.25;2.63;;;;;;;8.64;71.94;100633.53;10405232;28;20506;-80
2022/05/28 04:09:54;;;;;;;;;;;;;;;8.05;73.50;100638.41;10403398;28;20109;-80
2022/05/28 04:14:58;;;;;;;12.32;2.28;;;;;;;8.61;71.65;100639.97;10394255;28;20401;-77
2022/05/28 04:20:01;;;;;;;6.85;1.83;;;;;;;8.68;71.66;100635.03;10458132;23;20040;-78
2022/05/28 04:25:05;;;;;;;7.07;1.75;;;;;;;8.78;71.14;100643.28;10434254;28;20045;-78
2022/05/28 04:30:10;;;;;;;7.25;1.75;;;;;;;8.75;70.16;100652.41;10426058;28;20571;-78
2022/05/28 04:35:13;;;;;;;9.85;2.28;;;;;;;8.57;71.41;100657.19;10419719;28;20140;-78
2022/05/28 04:40:16;;;;;;;7.78;1.77;;;;;;;8.70;70.75;100661.72;10425076;28;20049;-77
2022/05/28 04:45:20;;;;;;;10.00;1.60;;;;;;;8.81;70.57;100653.78;10431819;28;20520;-78
2022/05/28 04:50:24;;;;;;;8.13;1.60;;;;;;;8.86;69.82;100673.09;10437791;28;20103;-77
2022/05/28 04:55:27;;;;;;;6.47;1.83;;;;;;;8.79;70.01;100702.09;10455365;28;20049;-77
2022/05/28 05:00:31;;;;;;;;;;;;;;;8.92;69.36;100691.41;10470121;28;20865;-78
2022/05/28 05:05:34;;;;;;;6.72;2.42;;;;;;;8.66;69.87;100681.63;10451313;28;20327;-77
2022/05/28 05:10:36;;;;;;;10.60;2.08;;;;;;;9.56;67.70;100691.34;10442080;28;20481;-78
2022/05/28 05:15:41;;;;;;;;;;;;;;;9.67;66.32;100693.25;10433152;28;20059;-75
2022/05/28 05:20:43;;;;;;;6.93;1.88;;;;;;;9.06;67.63;100702.03;10428478;28;20274;-76
2022/05/28 05:25:46;;;;;;;;;;;;;;;9.24;66.45;100701.69;10416412;28;20041;-78
2022/05/28 05:30:50;;;;;;;7.90;1.23;;;;;;;8.75;68.20;100710.44;10414362;28;19979;-76
2022/05/28 05:35:53;;;;;;;3.40;1.52;;;;;;;9.83;64.74;100709.97;10429106;28;20502;-76
2022/05/28 05:40:56;;;;;;;;;;;;;;;9.90;64.77;100715.75;10430250;28;20053;-75
2022/05/28 05:46:02;;;;;;;9.05;1.92;;;;;;;9.42;65.71;100716.47;10436086;28;20340;-74
2022/05/28 05:51:07;;;;;;;12.35;1.55;;;;;;;9.74;64.32;100721.38;10443835;28;20098;-75
2022/05/28 05:56:10;;;;;;;8.77;1.80;;;;;;;10.12;63.83;100698.94;10448577;28;20049;-76
2022/05/28 06:01:15;;;;;;;10.10;1.98;;;;;;;9.99;64.13;100715.09;10444366;28;20387;-76
2022/05/28 06:06:19;;;;;;;10.73;1.40;;;;;;;10.20;63.64;100714.47;10435611;28;20076;-76
2022/05/28 06:11:22;;;;;;;10.13;2.30;;;;;;;10.56;61.60;100719.78;10430318;28;20047;-76
2022/05/28 06:16:26;;;;;;;;;;;;;;;9.54;63.93;100713.88;10440838;28;20041;-75
2022/05/28 06:21:29;;;;;;;9.20;2.10;;;;;;;10.77;61.98;100711.06;10413566;28;19925;-75
2022/05/28 06:26:32;;;;;;;;;;;;;;;11.06;60.26;100724.94;10415306;28;20048;-75
2022/05/28 06:31:36;;;;;;;6.25;1.08;;;;;;;10.97;60.28;100715.75;10422626;28;19925;-76
2022/05/28 06:36:40;;;;;;;5.57;1.45;;;;;;;10.69;60.53;100713.47;10429834;28;20120;-75
2022/05/28 06:41:42;;;;;;;;;;;;;;;10.86;57.79;100715.75;10423331;28;20044;-75
2022/05/28 06:46:48;;;;;;;6.07;2.00;;;;;;;10.65;58.77;100714.69;10416149;28;20337;-76
2022/05/28 06:51:52;;;;;;;9.45;1.58;;;;;;;10.76;58.39;100723.63;10424200;28;20052;-76
2022/05/28 06:56:55;;;;;;;8.10;2.00;;;;;;;10.81;59.26;100713.41;10419504;28;20107;-76
2022/05/28 07:01:59;;;;;;;;;;;;;;;11.05;59.16;100712.47;10428374;28;20049;-76
2022/05/28 07:07:02;;;;;;;6.82;1.80;;;;;;;11.05;62.18;100726.78;10437221;28;19971;-76
2022/05/28 07:12:06;;;;;;;10.75;2.15;;;;;;;10.67;64.85;100721.66;10450766;28;20053;-76
2022/05/28 07:17:10;;;;;;;9.30;1.75;;;;;;;10.70;66.81;100737.56;10455757;28;20413;-76
2022/05/28 07:22:13;;;;;;;4.90;1.30;;;;;;;10.63;69.73;100749.72;10424533;28;20118;-76
2022/05/28 07:27:17;;;;;;;;;;;;;;;10.42;71.91;100740.59;10442326;28;20402;-77
2022/05/28 07:32:22;;;;;;;12.57;2.28;;;;;;;9.68;74.99;100729.84;10434589;28;19928;-76
2022/05/28 07:37:26;;;;;;;10.75;2.45;;;;;;;10.11;75.17;100724.94;10452641;28;20037;-77
2022/05/28 07:42:29;;;;;;;12.43;2.53;;;;;;;10.24;72.66;100730.25;10419876;28;20099;-77
2022/05/28 07:47:33;;;;;;;12.43;2.55;;;;;;;12.43;68.16;100724.78;10430939;28;20046;-77
2022/05/28 07:52:36;;;;;;;9.65;2.67;;;;;;;14.41;60.00;100713.69;10451051;28;20127;-77
2022/05/28 07:57:39;;;;;;;;;;;;;;;12.02;62.84;100726.31;10438675;28;20037;-77
2022/05/28 08:02:43;;;;;;;10.32;2.00;;;;;;;12.08;61.22;100734.75;10450768;28;19943;-76
2022/05/28 08:07:46;;;;;;;9.80;2.38;;;;;;;12.37;62.84;100729.69;10453606;28;20188;-76
2022/05/28 08:12:48;;;;;;;;;;;;;;;12.07;63.89;100726.81;10418777;28;20049;-75
2022/05/28 08:17:53;;;;;;;11.73;2.13;;;;;;;11.55;63.39;100736.41;10424423;28;19925;-76
2022/05/28 08:23:10;;;;;;;12.50;2.58;;;;;;;11.20;62.23;100726.59;10433252;28;20058;-77
2022/05/28 08:28:15;;;;;;;17.75;2.85;;;;;;;12.38;60.26;100723.31;10440458;28;20045;-76
2022/05/28 08:33:20;;;;;;;8.27;1.60;;;;;;;13.83;54.80;100717.13;10437214;28;20464;-76
2022/05/28 08:38:25;;;;;;;10.52;2.47;;;;;;;13.59;55.87;100722.84;10416383;28;20501;-76
2022/05/28 08:43:30;;;;;;;10.13;1.63;;;;;;;12.99;52.93;100706.47;10435647;28;20056;-76
2022/05/28 08:48:48;;;;;;;11.23;2.05;;;;;;;12.60;55.41;100695.41;10429113;28;20571;-76
2022/05/28 08:53:56;;;;;;;11.85;1.95;;;;;;;12.79;53.78;100708.19;10431050;28;20543;-76
2022/05/28 08:59:07;;;;;;;5.78;1.50;;;;;;;12.54;53.73;100713.94;10421867;28;20121;-77
2022/05/28 09:04:16;;;;;;;6.15;1.63;;;;;;;12.30;54.87;100725.78;10455184;28;20079;-76
2022/05/28 09:09:29;;;;;;;9.13;1.98;;;;;;;11.27;57.18;100752.00;10482477;28;20075;-76
2022/05/28 09:14:34;;;;;;;11.30;2.08;;;;;;;11.62;61.80;100757.28;10454374;28;20041;-77
2022/05/28 09:19:44;;;;;;;6.85;2.13;;;;;;;11.63;64.15;100772.47;10437699;28;20471;-75
2022/05/28 09:24:47;;;;;;;5.70;1.83;;;;;;;11.36;67.16;100762.06;10443370;28;20041;-76
2022/05/28 09:30:04;;;;;;;;;;;;;;;11.12;64.58;100772.88;10415779;28;20446;-78
2022/05/28 09:35:15;;;;;;;4.70;1.63;;;;;;;10.39;68.32;100776.59;10450442;28;19950;-76
2022/05/28 09:40:22;;;;;;;7.55;1.77;;;;;;;10.42;73.15;100783.56;10425359;28;20037;-76
2022/05/28 09:45:33;;;;;;;6.63;1.65;;;;;;;11.59;72.29;100762.06;10433748;28;20045;-77
2022/05/28 09:50:43;;;;;;;8.95;2.17;;;;;;;11.29;67.43;100752.75;10429369;28;20109;-76
2022/05/28 09:55:55;;;;;;;12.40;2.25;;;;;;;13.60;65.05;100737.19;10442937;28;20049;-77
2022/05/28 10:01:08;;;;;;;5.90;1.85;;;;;;;14.11;58.78;100733.53;10418633;28;20045;-77
2022/05/28 10:06:15;;;;;;;9.30;1.98;;;;;;;14.72;54.60;100736.03;10427380;28;20129;-77
2022/05/28 10:11:19;;;;;;;5.32;1.70;;;;;;;11.45;66.77;100779.31;10432456;28;20045;-77
2022/05/28 10:16:25;;;;;;;7.07;1.40;;;;;;;10.91;72.21;100769.13;10440029;28;20091;-78
2022/05/28 10:21:53;;;;;;;3.75;1.20;;;;;;;10.34;76.23;100768.03;10450091;23;20048;-78
2022/05/28 10:26:59;;;;;;;4.60;1.67;;;;;;;11.62;76.54;100759.97;10390136;28;20112;-80
2022/05/28 10:32:03;;;;;;;9.32;1.77;;;;;;;12.58;73.34;100745.88;10402109;28;20108;-81
2022/05/28 10:37:12;;;;;;;6.35;2.05;;;;;;;12.72;72.45;100730.38;10405600;28;20061;-78
2022/05/28 10:42:16;;;;;;;11.65;1.98;;;;;;;13.12;71.51;100729.69;10408797;28;20085;-81
2022/05/28 10:47:33;;;;;;;10.65;2.08;;;;;;;14.87;65.05;100728.34;10422496;28;20091;-80
2022/05/28 10:52:51;;;;;;;6.40;1.58;;;;;;;15.70;60.01;100742.13;10402178;28;20554;-81
2022/05/28 10:58:16;;;;;;;5.35;1.45;;;;;;;13.98;60.87;100719.44;10401800;28;20049;-80
2022/05/28 11:03:49;;;;;;;4.30;1.00;;;;;;;11.21;69.11;100730.97;10409414;28;20053;-80
2022/05/28 11:09:01;;;;;;;3.05;0.90;;;;;;;10.71;73.21;100727.66;10402005;28;20057;-81
2022/05/28 11:14:23;;;;;;;8.70;1.40;;;;;;;12.49;71.38;100703.53;10407030;28;20075;-81
2022/05/28 11:19:48;;;;;;;5.03;2.45;;;;;;;13.81;64.00;100704.75;10419558;28;20394;-82
2022/05/28 11:24:54;;;;;;;7.25;1.63;;;;;;;14.46;62.77;100691.66;10416936;28;20042;-81
2022/05/28 11:30:05;;;;;;;8.18;1.58;;;;;;;13.54;62.67;100729.66;10405550;28;20454;-81
2022/05/28 11:35:15;;;;;;;5.18;1.25;;;;;;;9.61;74.01;100742.00;10410689;28;20053;-78
2022/05/28 11:40:23;;;;;;;11.07;2.30;;;;;;;9.94;81.78;100739.59;10426014;28;20042;-77
2022/05/28 11:45:33;;;;;;;13.80;2.03;;;;;;;10.12;80.22;100723.09;10408909;28;20061;-80
2022/05/28 11:56:07;;;;;;;7.35;2.30;;;;;;;13.24;73.48;100696.25;10422168;28;20115;-81
2022/05/28 12:01:13;;;;;;;12.23;2.55;;;;;;;13.01;70.44;100692.84;10420749;28;20041;-79
2022/05/28 12:06:26;;;;;;;2.92;1.50;;;;;;;14.07;55.69;100694.28;10414854;28;20538;-79
2022/05/28 12:11:45;;;;;;;8.15;1.90;;;;;;;14.45;61.16;100698.06;10441533;28;20046;-78
2022/05/28 12:17:01;;;;;;;4.70;1.48;;;;;;;14.33;56.66;100673.84;10427588;28;20053;-83
2022/05/28 12:22:21;;;;;;;8.48;1.52;;;;;;;14.53;54.73;100666.59;10418381;28;20053;-80
2022/05/28 12:27:37;;;;;;;7.05;1.83;;;;;;;15.11;54.16;100653.97;10417742;28;20053;-82
2022/05/28 12:32:45;;;;;;;9.75;1.83;;;;;;;15.54;53.89;100650.69;10418894;28;20042;-81
2022/05/28 12:37:53;;;;;;;10.82;1.83;;;;;;;15.22;53.41;100637.53;10418127;28;20061;-82
2022/05/28 12:43:11;;;;;;;6.85;2.17;;;;;;;15.22;54.21;100643.84;10423339;28;20053;-82
2022/05/28 12:48:16;;;;;;;9.63;1.90;;;;;;;15.49;50.81;100647.56;10419567;28;20414;-82
2022/05/28 12:53:21;;;;;;;9.88;2.47;;;;;;;16.28;50.80;100635.25;10407692;28;20060;-82
2022/05/28 12:58:30;;;;;;;5.60;1.65;;;;;;;17.87;47.05;100626.72;10400232;28;20088;-80
2022/05/28 13:03:38;;;;;;;5.93;1.90;;;;;;;17.17;46.47;100635.09;10391354;28;20394;-82
2022/05/28 13:08:45;;;;;;;8.50;1.75;;;;;;;14.64;59.60;100681.81;10386006;28;20116;-82
2022/05/28 13:14:25;;;;;;;13.63;2.40;;;;;;;12.55;72.32;100688.69;10404349;28;20042;-82
2022/05/28 13:19:40;;;;;;;12.90;2.40;;;;;;;11.87;72.03;100666.50;10403357;28;20049;-82
2022/05/28 13:25:07;;;;;;;30.80;4.10;;;;;;;12.80;74.57;100649.72;10399778;28;20133;-81
2022/05/28 13:30:14;;;;;;;17.85;3.58;;;;;;;14.20;69.51;100642.69;10406883;28;20044;-81
2022/05/28 13:35:20;;;;;;;18.05;2.22;;;;;;;15.73;63.84;100638.91;10403440;28;20092;-79
2022/05/28 13:40:26;;;;;;;12.65;2.60;;;;;;;16.61;59.87;100638.25;10389720;28;20482;-81
2022/05/28 13:45:35;;;;;;;13.40;1.60;;;;;;;15.66;54.44;100651.34;10400398;28;20049;-81
2022/05/28 13:50:40;;;;;;;6.65;1.88;;;;;;;15.04;53.40;100651.00;10401437;28;20045;-79
2022/05/28 13:55:45;;;;;;;12.32;2.42;;;;;;;15.33;54.74;100650.03;10413938;28;20041;-80
2022/05/28 14:00:58;;;;;;;4.72;1.77;;;;;;;14.20;54.73;100658.91;10396973;28;20075;-79
2022/05/28 14:06:03;;;;;;;3.47;1.38;;;;;;;11.81;56.78;100669.69;10397305;28;20037;-78
2022/05/28 14:11:21;;;;;;;9.70;1.33;;;;;;;11.84;56.59;100672.13;10406133;28;20136;-77
2022/05/28 14:16:28;;;;;;;8.57;1.60;;;;;;;12.52;56.20;100665.56;10407989;28;20048;-79
2022/05/28 14:21:34;;;;;;;11.23;1.63;;;;;;;12.47;56.24;100662.41;10426956;28;20050;-78
2022/05/28 14:26:37;;;;;;;8.05;1.70;;;;;;;13.15;54.79;100651.19;10431655;28;20038;-81
2022/05/28 14:31:43;;;;;;;11.57;1.75;;;;;;;14.31;55.92;100640.69;10392179;28;20046;-81
2022/05/28 14:36:51;;;;;;;4.38;1.55;;;;;;;14.78;50.00;100637.25;10408083;28;20060;-80
2022/05/28 14:42:01;;;;;;;9.35;1.73;;;;;;;17.35;49.61;100624.16;10408136;28;20104;-79
2022/05/28 14:47:12;;;;;;;7.95;1.63;;;;;;;17.02;46.40;100621.22;10413262;28;20046;-79
2022/05/28 14:52:19;;;;;;;8.05;1.90;;;;;;;16.52;45.99;100618.34;10393174;28;20069;-78
2022/05/28 14:57:31;;;;;;;6.93;1.77;;;;;;;15.15;47.31;100628.34;10389763;28;20057;-80
2022/05/28 15:02:37;;;;;;;12.00;2.38;;;;;;;14.87;49.26;100622.88;10400064;28;20046;-80
2022/05/28 15:07:48;;;;;;;6.90;1.73;;;;;;;14.77;46.96;100620.19;10416897;28;20095;-78
2022/05/28 15:12:51;;;;;;;10.27;2.00;;;;;;;17.21;44.80;100614.75;10420466;28;20041;-77
2022/05/28 15:17:55;;;;;;;12.05;1.85;;;;;;;19.60;39.91;100608.38;10400137;28;20062;-78
2022/05/28 15:22:58;;;;;;;9.63;1.70;;;;;;;18.18;43.27;100609.78;10427244;28;20049;-76
2022/05/28 15:28:01;;;;;;;9.20;1.90;;;;;;;17.07;42.61;100607.19;10431263;28;20109;-77
2022/05/28 15:33:08;;;;;;;9.38;1.50;;;;;;;16.42;43.15;100610.31;10415900;28;20038;-77
2022/05/28 15:38:14;;;;;;;3.33;1.48;;;;;;;18.25;41.85;100601.81;10410822;28;20380;-78
2022/05/28 15:43:17;;;;;;;7.97;1.55;;;;;;;18.00;42.15;100604.53;10418509;28;20034;-78
2022/05/28 15:48:21;;;;;;;7.03;1.50;;;;;;;16.48;43.09;100616.97;10371630;28;20113;-80
2022/05/28 15:53:24;;;;;;;6.05;1.75;;;;;;;15.67;42.70;100613.28;10329605;28;20044;-79
2022/05/28 15:58:30;;;;;;;9.68;1.33;;;;;;;16.12;42.22;100606.97;10332502;28;20042;-79
2022/05/28 16:03:34;;;;;;;10.60;1.67;;;;;;;14.21;45.54;100629.06;10323294;28;20051;-78
2022/05/28 16:08:40;;;;;;;7.28;1.98;;;;;;;14.91;44.87;100621.56;10316210;28;20054;-77
2022/05/28 16:13:45;;;;;;;12.07;1.73;;;;;;;15.78;44.40;100609.50;10314217;28;20054;-79
2022/05/28 16:18:51;;;;;;;6.60;1.42;;;;;;;15.95;44.22;100613.25;10302894;28;20039;-76
2022/05/28 16:23:53;;;;;;;5.28;1.60;;;;;;;16.60;42.25;100615.72;10314292;28;20055;-79
2022/05/28 16:29:00;;;;;;;5.18;1.70;;;;;;;17.03;41.33;100608.50;10306199;28;20057;-77
2022/05/28 16:34:04;;;;;;;7.35;1.58;;;;;;;16.77;41.82;100605.81;10307063;28;20058;-77
2022/05/28 16:39:08;;;;;;;5.35;1.42;;;;;;;16.30;41.89;100608.88;10302704;28;20097;-78
2022/05/28 16:44:15;;;;;;;7.97;1.60;;;;;;;15.01;43.92;100605.31;10301107;28;20105;-78
2022/05/28 16:49:19;;;;;;;5.43;1.52;;;;;;;14.76;44.50;100615.78;10312221;28;20050;-76
2022/05/28 16:54:22;;;;;;;4.55;1.33;;;;;;;14.72;45.35;100616.22;10305232;28;20138;-78
2022/05/28 16:59:26;;;;;;;6.75;1.50;;;;;;;14.59;45.28;100633.59;10309981;28;20129;-76
2022/05/28 17:04:31;;;;;;;5.78;1.33;;;;;;;14.91;44.97;100612.59;10316099;28;20046;-77
2022/05/28 17:09:33;;;;;;;11.55;1.90;;;;;;;14.75;45.03;100616.75;10329245;28;20492;-78
2022/05/28 17:14:36;;;;;;;4.85;1.30;;;;;;;14.86;45.34;100609.50;10303279;28;20108;-77
2022/05/28 17:19:40;;;;;;;4.40;1.10;;;;;;;17.63;39.93;100607.63;10312162;28;20055;-76
2022/05/28 17:24:44;;;;;;;4.85;1.60;;;;;;;15.59;44.43;100618.59;10313009;28;20046;-77
2022/05/28 17:29:47;;;;;;;6.45;1.40;;;;;;;13.88;46.98;100614.09;10312734;28;20539;-77
2022/05/28 17:34:52;;;;;;;6.05;1.55;;;;;;;13.91;47.15;100614.66;10322668;28;20058;-77
2022/05/28 17:39:56;;;;;;;5.95;2.22;;;;;;;12.98;50.01;100607.69;10302752;28;20066;-76
2022/05/28 17:45:04;;;;;;;6.68;1.90;;;;;;;13.32;49.96;100606.53;10319585;28;20044;-78
2022/05/28 17:50:11;;;;;;;6.90;1.75;;;;;;;13.01;49.89;100602.03;10310867;28;20047;-78
2022/05/28 17:55:16;;;;;;;8.98;2.00;;;;;;;12.84;50.25;100605.34;10316664;28;20046;-78
2022/05/28 18:00:21;;;;;;;7.97;1.60;;;;;;;12.58;50.29;100594.97;10317576;28;20131;-78
2022/05/28 18:05:27;;;;;;;8.80;2.53;;;;;;;12.91;50.35;100593.03;10312448;28;20043;-79
2022/05/28 18:10:29;;;;;;;7.57;1.55;;;;;;;13.08;49.41;100598.78;10314351;28;20102;-79
2022/05/28 18:15:34;;;;;;;;;;;;;;;13.49;49.00;100597.81;10328103;28;20042;-78
2022/05/28 18:20:39;;;;;;;5.40;1.48;;;;;;;13.41;49.21;100597.66;10318974;28;19922;-78
2022/05/28 18:25:44;;;;;;;9.50;2.00;;;;;;;12.69;50.68;100593.19;10308479;28;20495;-78
2022/05/28 18:30:47;;;;;;;14.07;2.72;;;;;;;13.08;50.39;100607.72;10306046;28;20070;-77
2022/05/28 18:35:53;;;;;;;10.93;1.77;;;;;;;13.13;50.96;100608.16;10323301;28;20073;-79
2022/05/28 18:40:58;;;;;;;8.07;1.55;;;;;;;12.74;51.64;100601.75;10334251;28;20038;-79
2022/05/28 18:46:01;;;;;;;7.47;1.60;;;;;;;12.94;51.28;100594.59;10323015;28;20054;-77
2022/05/28 18:51:06;;;;;;;7.22;1.38;;;;;;;12.49;51.22;100597.63;10328485;28;20437;-79
2022/05/28 18:56:10;;;;;;;6.28;2.00;;;;;;;12.04;51.49;100604.06;10326103;28;20051;-79
2022/05/28 19:01:13;;;;;;;7.10;1.38;;;;;;;12.21;51.74;100591.84;10322217;28;20054;-78
2022/05/28 19:06:18;;;;;;;6.53;1.08;;;;;;;12.23;51.53;100591.72;10324133;28;20129;-78
2022/05/28 19:11:44;;;;;;;7.03;0.95;;;;;;;11.93;51.50;100587.94;10345171;28;20047;-76
2022/05/28 19:16:50;;;;;;;3.75;0.90;;;;;;;11.37;52.50;100585.41;10334194;28;20050;-78
2022/05/28 19:21:55;;;;;;;5.88;1.13;;;;;;;11.32;53.10;100592.97;10321700;28;20046;-78
2022/05/28 19:27:11;;;;;;;5.63;1.20;;;;;;;11.15;53.54;100591.66;10324403;28;20046;-78
2022/05/28 19:32:21;;;;;;;6.20;1.25;;;;;;;11.17;53.80;100595.94;10319042;28;20047;-78
2022/05/28 19:37:25;;;;;;;8.85;1.45;;;;;;;11.16;54.00;100590.66;10325155;28;20050;-78
2022/05/28 19:42:32;;;;;;;4.18;1.17;;;;;;;10.98;54.29;100592.97;10321725;28;20161;-78
2022/05/28 19:47:35;;;;;;;8.45;1.52;;;;;;;10.93;54.67;100595.16;10310759;28;20516;-78
2022/05/28 19:52:39;;;;;;;;;;;;;;;10.60;55.05;100596.84;10307187;28;20039;-78
2022/05/28 19:57:43;;;;;;;6.75;1.50;;;;;;;10.70;55.35;100603.22;10315414;28;19952;-77
2022/05/28 20:02:45;;;;;;;6.85;1.38;;;;;;;10.61;55.92;100585.09;10319768;28;20790;-78
2022/05/28 20:07:49;;;;;;;;;;;;;;;10.35;56.19;100574.56;10322100;28;20043;-79
2022/05/28 20:12:53;;;;;;;2.03;0.93;;;;;;;10.07;57.41;100570.47;10315869;28;19948;-78
2022/05/28 20:17:57;;;;;;;6.72;2.00;;;;;;;10.05;57.68;100566.19;10319015;28;20042;-78
2022/05/28 20:23:04;;;;;;;9.15;1.35;;;;;;;10.02;57.93;100567.25;10315777;28;20093;-78
2022/05/28 20:28:08;;;;;;;3.70;1.48;;;;;;;10.00;58.41;100571.03;10318398;28;20101;-78
2022/05/28 20:33:11;;;;;;;7.38;2.17;;;;;;;10.04;58.36;100572.50;10325254;28;20046;-77
2022/05/28 20:38:15;;;;;;;7.50;2.00;;;;;;;9.80;59.04;100565.31;10334232;28;20054;-77
2022/05/28 20:43:18;;;;;;;8.98;3.15;;;;;;;9.75;59.27;100556.75;10347862;28;20419;-78
2022/05/28 20:48:25;;;;;;;6.57;1.70;;;;;;;9.73;59.30;100556.84;10320713;28;20054;-78
2022/05/28 20:53:32;;;;;;;6.50;1.55;;;;;;;9.64;59.59;100554.00;10332261;28;20456;-78
2022/05/28 20:58:35;;;;;;;5.82;1.90;;;;;;;9.62;59.52;100550.59;10351803;28;20042;-78
2022/05/28 21:03:40;;;;;;;9.18;1.85;;;;;;;9.67;59.46;100556.47;10341997;28;20084;-78
2022/05/28 21:08:45;;;;;;;7.85;1.65;;;;;;;9.59;59.35;100548.97;10335394;28;20389;-78
2022/05/28 21:13:48;;;;;;;4.25;1.45;;;;;;;9.67;59.08;100543.91;10326149;28;20039;-78
2022/05/28 21:18:54;;;;;;;6.03;1.55;;;;;;;9.76;59.13;100545.03;10328305;28;20137;-77
2022/05/28 21:23:59;;;;;;;9.75;1.77;;;;;;;9.62;58.95;100543.38;10316052;28;20053;-78
2022/05/28 21:34:23;;;;;;;10.00;2.15;;;;;;;9.30;59.79;100545.78;10327361;28;20050;-78
2022/05/28 21:39:27;;;;;;;6.15;1.73;;;;;;;9.13;60.63;100538.09;10313380;28;20054;-78
2022/05/28 21:44:30;;;;;;;6.55;2.30;;;;;;;8.89;61.59;100546.97;10328558;28;20038;-78
2022/05/28 21:49:33;;;;;;;;;;;;;;;8.87;61.98;100535.47;10323132;28;20093;-78
2022/05/28 21:54:39;;;;;;;9.60;1.67;;;;;;;8.43;63.38;100533.25;10317482;28;19921;-78
2022/05/28 21:59:42;;;;;;;8.85;2.15;;;;;;;8.69;63.00;100524.25;10325153;28;20080;-78
2022/05/28 22:04:45;;;;;;;7.15;2.08;;;;;;;8.89;62.82;100530.88;10331848;28;20046;-78
2022/05/28 22:09:49;;;;;;;;;;;;;;;8.74;63.39;100519.41;10316601;28;20104;-78
2022/05/28 22:14:51;;;;;;;8.38;1.40;;;;;;;8.63;63.52;100513.97;10303615;28;19926;-79
2022/05/28 22:19:54;;;;;;;;;;;;;;;8.36;64.02;100514.94;10313917;28;20054;-77
2022/05/28 22:25:02;;;;;;;9.60;1.75;;;;;;;8.43;64.70;100504.66;10307527;28;19921;-77
2022/05/28 22:30:07;;;;;;;10.85;1.80;;;;;;;8.56;64.59;100502.84;10309948;28;20054;-77
2022/05/28 22:35:12;;;;;;;16.70;2.85;;;;;;;8.56;64.81;100500.19;10316408;28;20042;-78
2022/05/28 22:40:16;;;;;;;4.97;1.77;;;;;;;8.68;65.09;100506.47;10320171;28;20042;-78
2022/05/28 22:45:20;;;;;;;7.10;2.25;;;;;;;8.70;65.56;100498.34;10319673;28;20101;-78
2022/05/28 22:50:27;;;;;;;8.93;1.83;;;;;;;8.76;65.51;100492.53;10317817;28;20112;-78
2022/05/28 22:55:34;;;;;;;7.22;2.30;;;;;;;8.69;65.71;100481.41;10314998;28;20085;-78
2022/05/28 23:00:41;;;;;;;9.77;3.10;;;;;;;8.98;65.24;100481.13;10328683;28;20124;-78
2022/05/28 23:05:48;;;;;;;5.40;2.03;;;;;;;8.58;66.22;100468.81;10333753;28;20551;-78
2022/05/28 23:10:52;;;;;;;7.63;2.38;;;;;;;9.05;65.75;100459.16;10321911;28;20567;-77
2022/05/28 23:15:55;;;;;;;9.40;2.25;;;;;;;8.95;66.10;100466.13;10317796;28;20081;-78
2022/05/28 23:21:00;;;;;;;10.88;2.53;;;;;;;9.02;66.16;100455.81;10314202;28;20062;-77
2022/05/28 23:26:04;;;;;;;6.65;2.00;;;;;;;8.53;68.10;100454.88;10314818;28;20124;-77
2022/05/28 23:31:11;;;;;;;13.68;2.40;;;;;;;8.62;68.12;100453.38;10320813;28;20492;-77
2022/05/28 23:36:22;;;;;;;7.45;3.00;;;;;;;8.72;67.77;100445.50;10312243;28;20066;-78
2022/05/28 23:41:26;;;;;;;11.90;2.75;;;;;;;8.90;67.85;100441.50;10320601;28;20687;-78
2022/05/28 23:46:37;;;;;;;11.05;2.40;;;;;;;8.80;68.25;100435.09;10318282;28;20401;-77